ولاية سوق أهراس, الجزائر

09:18 AM CET on êواêر 26, 2015 (GMT +0100)
Cheikh Larbi Tebessi | Change Station
CLOSE
Current Station
Airport
Location: Tebessa,
Elevation: 2661 ft
Nearby Weather Stations

Elev 2661 ft 35.43 °N, 8.12 °E | Updated 18 minutes ago

Mostly Cloudy
غائم كلياً
37 °F
Feels Like 37 °F
N
0
ريح متغير ريح from شمال

هذا اليوم
High -- | Low -- °F
--% Chance of Precip.
Yesterday
High -- | Low -- °F
Precip. -- في
7:33 AM 5:47 PM
الهلال الأول, 41% visible
الضغط 29.98 في
وضوح الرؤية 5.0 أميال
سحابات غيوم متفرقة 1300 ft
غائم كلياً 3000 ft
نقطة الندى 36 °F
الرطوبة 93%
Rainfall 0.00 في
عمق الثلج Not available.
الأشعة فوق البنفسجية 1 out of 12
Pollen Not available.
جودة الهواء Not available.
Flu Activity Not available.
METAR DABS 260800Z 00000KT 8000 SCT013 BKN030 03/02 Q1015

More Conditions Fewer Conditions

الضغط 29.98 في
وضوح الرؤية 5.0 أميال
سحابات غيوم متفرقة 1300 ft
غائم كلياً 3000 ft
نقطة الندى 36 °F
الرطوبة 93%
Rainfall 0.00 في
عمق الثلج Not available.
الأشعة فوق البنفسجية 1 out of 12
Pollen Not available.
جودة الهواء Not available.
Flu Activity Not available.
METAR DABS 260800Z 00000KT 8000 SCT013 BKN030 03/02 Q1015

More Conditions Fewer Conditions

10-Day Weather Forecast

Almanac

علم الفلك

Jan. 26, 2015 Rise Set
Actual Time
Civil Twilight
Nautical Twilight
Astronomical Twilight
قمر
Length Of Visible Light
طول الیوم
Tomorrow will be .
, % of the Moon is Illuminated

Today's Extremes

Country Highs Country Lows

Community

WunderPhotos

Upload Photos

1,790,163 photos uploaded!

WunderBlogs® & News

Nearby

جودة الهواء

  جودة الهواء AQ Index Pollutant
Not available.

عمق الثلج

Station Depth Elevation

Earthquake Activity

City Distance Mag. Time & Date
Minimum magnitude displayed is 2.5.

Coastal Water Temperatures

مكان درجات الحرارة

Nearby Weather Stations